sensor_id;sensor_type;location;lat;lon;timestamp;P1;durP1;ratioP1;P2;durP2;ratioP2
18973;SDS011;9621;48.690;9.466;2023-03-23T00:00:05;4.15;;;2.90;;
18973;SDS011;9621;48.690;9.466;2023-03-23T00:02:35;5.50;;;3.10;;
18973;SDS011;9621;48.690;9.466;2023-03-23T00:05:03;4.28;;;3.10;;
18973;SDS011;9621;48.690;9.466;2023-03-23T00:07:32;4.03;;;3.05;;
18973;SDS011;9621;48.690;9.466;2023-03-23T00:09:59;6.18;;;3.13;;
18973;SDS011;9621;48.690;9.466;2023-03-23T00:12:28;6.30;;;3.40;;
18973;SDS011;9621;48.690;9.466;2023-03-23T00:14:58;6.10;;;3.00;;
18973;SDS011;9621;48.690;9.466;2023-03-23T00:17:25;5.30;;;3.38;;
18973;SDS011;9621;48.690;9.466;2023-03-23T00:19:54;4.60;;;3.38;;
18973;SDS011;9621;48.690;9.466;2023-03-23T00:22:21;3.47;;;2.30;;
18973;SDS011;9621;48.690;9.466;2023-03-23T00:24:50;4.70;;;2.80;;
18973;SDS011;9621;48.690;9.466;2023-03-23T00:27:18;4.57;;;3.20;;
18973;SDS011;9621;48.690;9.466;2023-03-23T00:29:46;7.32;;;3.08;;
18973;SDS011;9621;48.690;9.466;2023-03-23T00:32:17;8.10;;;3.65;;
18973;SDS011;9621;48.690;9.466;2023-03-23T00:34:46;7.25;;;3.08;;
18973;SDS011;9621;48.690;9.466;2023-03-23T00:37:16;5.43;;;3.10;;
18973;SDS011;9621;48.690;9.466;2023-03-23T00:39:43;3.78;;;2.60;;
18973;SDS011;9621;48.690;9.466;2023-03-23T00:42:11;5.20;;;2.78;;
18973;SDS011;9621;48.690;9.466;2023-03-23T00:44:39;3.67;;;3.05;;
18973;SDS011;9621;48.690;9.466;2023-03-23T00:47:07;6.50;;;3.45;;
18973;SDS011;9621;48.690;9.466;2023-03-23T00:49:35;5.13;;;3.15;;
18973;SDS011;9621;48.690;9.466;2023-03-23T00:52:03;5.05;;;3.13;;
18973;SDS011;9621;48.690;9.466;2023-03-23T00:54:32;4.35;;;3.30;;
18973;SDS011;9621;48.690;9.466;2023-03-23T00:57:00;10.40;;;3.63;;
18973;SDS011;9621;48.690;9.466;2023-03-23T00:59:27;5.43;;;3.10;;
18973;SDS011;9621;48.690;9.466;2023-03-23T01:01:53;5.55;;;3.83;;
18973;SDS011;9621;48.690;9.466;2023-03-23T01:04:20;4.35;;;2.92;;
18973;SDS011;9621;48.690;9.466;2023-03-23T01:06:48;5.97;;;3.30;;
18973;SDS011;9621;48.690;9.466;2023-03-23T01:09:17;5.53;;;3.10;;
18973;SDS011;9621;48.690;9.466;2023-03-23T01:11:48;5.32;;;3.60;;
18973;SDS011;9621;48.690;9.466;2023-03-23T01:14:17;5.85;;;3.40;;
18973;SDS011;9621;48.690;9.466;2023-03-23T01:16:45;6.50;;;3.38;;
18973;SDS011;9621;48.690;9.466;2023-03-23T01:19:12;9.65;;;3.30;;
18973;SDS011;9621;48.690;9.466;2023-03-23T01:21:40;4.97;;;2.92;;
18973;SDS011;9621;48.690;9.466;2023-03-23T01:24:07;5.53;;;3.53;;
18973;SDS011;9621;48.690;9.466;2023-03-23T01:26:34;5.25;;;3.25;;
18973;SDS011;9621;48.690;9.466;2023-03-23T01:29:03;7.10;;;3.60;;
18973;SDS011;9621;48.690;9.466;2023-03-23T01:31:30;4.38;;;3.38;;
18973;SDS011;9621;48.690;9.466;2023-03-23T01:33:57;5.75;;;3.72;;
18973;SDS011;9621;48.690;9.466;2023-03-23T01:36:25;9.20;;;4.82;;
18973;SDS011;9621;48.690;9.466;2023-03-23T01:38:54;5.43;;;3.50;;
18973;SDS011;9621;48.690;9.466;2023-03-23T01:41:23;5.97;;;3.42;;
18973;SDS011;9621;48.690;9.466;2023-03-23T01:43:53;5.65;;;3.30;;
18973;SDS011;9621;48.690;9.466;2023-03-23T01:46:24;4.07;;;2.88;;
18973;SDS011;9621;48.690;9.466;2023-03-23T01:48:52;5.15;;;3.20;;
18973;SDS011;9621;48.690;9.466;2023-03-23T01:51:19;7.18;;;3.20;;
18973;SDS011;9621;48.690;9.466;2023-03-23T01:53:48;7.32;;;2.70;;
18973;SDS011;9621;48.690;9.466;2023-03-23T01:56:18;4.78;;;2.97;;
18973;SDS011;9621;48.690;9.466;2023-03-23T01:58:50;4.47;;;3.40;;
18973;SDS011;9621;48.690;9.466;2023-03-23T02:01:18;3.20;;;2.70;;
18973;SDS011;9621;48.690;9.466;2023-03-23T02:03:47;5.05;;;3.08;;
18973;SDS011;9621;48.690;9.466;2023-03-23T02:06:14;3.42;;;2.42;;
18973;SDS011;9621;48.690;9.466;2023-03-23T02:08:41;4.85;;;3.17;;
18973;SDS011;9621;48.690;9.466;2023-03-23T02:11:13;3.88;;;2.75;;
18973;SDS011;9621;48.690;9.466;2023-03-23T02:13:44;3.35;;;2.88;;
18973;SDS011;9621;48.690;9.466;2023-03-23T02:16:14;6.95;;;3.13;;
18973;SDS011;9621;48.690;9.466;2023-03-23T02:18:55;4.93;;;3.15;;
18973;SDS011;9621;48.690;9.466;2023-03-23T02:21:52;6.90;;;3.28;;
18973;SDS011;9621;48.690;9.466;2023-03-23T02:24:41;5.53;;;2.90;;
18973;SDS011;9621;48.690;9.466;2023-03-23T02:27:21;4.78;;;3.00;;
18973;SDS011;9621;48.690;9.466;2023-03-23T02:30:10;4.93;;;2.85;;
18973;SDS011;9621;48.690;9.466;2023-03-23T02:35:48;6.45;;;3.28;;
18973;SDS011;9621;48.690;9.466;2023-03-23T02:38:19;4.45;;;3.40;;
18973;SDS011;9621;48.690;9.466;2023-03-23T02:40:52;5.78;;;3.17;;
18973;SDS011;9621;48.690;9.466;2023-03-23T02:43:23;8.15;;;4.20;;
18973;SDS011;9621;48.690;9.466;2023-03-23T02:45:53;5.35;;;3.50;;
18973;SDS011;9621;48.690;9.466;2023-03-23T02:48:24;5.32;;;3.38;;
18973;SDS011;9621;48.690;9.466;2023-03-23T02:50:56;6.55;;;3.47;;
18973;SDS011;9621;48.690;9.466;2023-03-23T02:53:24;5.10;;;3.65;;
18973;SDS011;9621;48.690;9.466;2023-03-23T02:55:52;5.75;;;3.22;;
18973;SDS011;9621;48.690;9.466;2023-03-23T02:58:21;4.75;;;3.30;;
18973;SDS011;9621;48.690;9.466;2023-03-23T03:00:48;5.93;;;3.38;;
18973;SDS011;9621;48.690;9.466;2023-03-23T03:03:16;5.00;;;3.20;;
18973;SDS011;9621;48.690;9.466;2023-03-23T03:05:49;6.25;;;3.20;;
18973;SDS011;9621;48.690;9.466;2023-03-23T03:08:24;5.90;;;2.90;;
18973;SDS011;9621;48.690;9.466;2023-03-23T03:10:57;3.67;;;2.95;;
18973;SDS011;9621;48.690;9.466;2023-03-23T03:13:31;5.07;;;3.08;;
18973;SDS011;9621;48.690;9.466;2023-03-23T03:16:07;4.35;;;2.97;;
18973;SDS011;9621;48.690;9.466;2023-03-23T03:18:42;4.57;;;2.63;;
18973;SDS011;9621;48.690;9.466;2023-03-23T03:21:16;5.78;;;2.65;;
18973;SDS011;9621;48.690;9.466;2023-03-23T03:23:45;4.90;;;3.05;;
18973;SDS011;9621;48.690;9.466;2023-03-23T03:26:16;4.18;;;2.80;;
18973;SDS011;9621;48.690;9.466;2023-03-23T03:28:45;4.45;;;3.28;;
18973;SDS011;9621;48.690;9.466;2023-03-23T03:31:15;3.22;;;2.67;;
18973;SDS011;9621;48.690;9.466;2023-03-23T03:33:45;4.22;;;3.30;;
18973;SDS011;9621;48.690;9.466;2023-03-23T03:36:14;7.43;;;3.90;;
18973;SDS011;9621;48.690;9.466;2023-03-23T03:38:45;6.97;;;3.38;;
18973;SDS011;9621;48.690;9.466;2023-03-23T03:41:14;5.95;;;3.80;;
18973;SDS011;9621;48.690;9.466;2023-03-23T03:43:41;4.88;;;3.20;;
18973;SDS011;9621;48.690;9.466;2023-03-23T03:46:08;6.50;;;3.38;;
18973;SDS011;9621;48.690;9.466;2023-03-23T03:48:35;6.28;;;3.20;;
18973;SDS011;9621;48.690;9.466;2023-03-23T03:51:02;7.10;;;3.53;;
18973;SDS011;9621;48.690;9.466;2023-03-23T03:53:33;4.88;;;3.25;;
18973;SDS011;9621;48.690;9.466;2023-03-23T03:56:00;6.72;;;3.42;;
18973;SDS011;9621;48.690;9.466;2023-03-23T03:58:27;5.95;;;4.20;;
18973;SDS011;9621;48.690;9.466;2023-03-23T04:00:57;6.07;;;3.70;;
18973;SDS011;9621;48.690;9.466;2023-03-23T04:03:25;7.60;;;3.85;;
18973;SDS011;9621;48.690;9.466;2023-03-23T04:05:57;4.25;;;3.60;;
18973;SDS011;9621;48.690;9.466;2023-03-23T04:08:24;6.10;;;3.72;;
18973;SDS011;9621;48.690;9.466;2023-03-23T04:10:54;4.82;;;3.42;;
18973;SDS011;9621;48.690;9.466;2023-03-23T04:13:21;8.52;;;3.88;;
18973;SDS011;9621;48.690;9.466;2023-03-23T04:15:49;6.35;;;4.05;;
18973;SDS011;9621;48.690;9.466;2023-03-23T04:18:16;6.70;;;4.00;;
18973;SDS011;9621;48.690;9.466;2023-03-23T04:20:44;4.22;;;2.80;;
18973;SDS011;9621;48.690;9.466;2023-03-23T04:23:13;5.50;;;3.70;;
18973;SDS011;9621;48.690;9.466;2023-03-23T04:25:44;4.07;;;3.13;;
18973;SDS011;9621;48.690;9.466;2023-03-23T04:28:13;5.57;;;3.28;;
18973;SDS011;9621;48.690;9.466;2023-03-23T04:30:41;5.57;;;3.05;;
18973;SDS011;9621;48.690;9.466;2023-03-23T04:33:09;4.63;;;3.15;;
18973;SDS011;9621;48.690;9.466;2023-03-23T04:35:39;3.85;;;2.95;;
18973;SDS011;9621;48.690;9.466;2023-03-23T04:38:06;4.82;;;3.20;;
18973;SDS011;9621;48.690;9.466;2023-03-23T04:40:35;7.85;;;3.42;;
18973;SDS011;9621;48.690;9.466;2023-03-23T04:43:02;4.47;;;3.30;;
18973;SDS011;9621;48.690;9.466;2023-03-23T04:45:34;5.13;;;3.58;;
18973;SDS011;9621;48.690;9.466;2023-03-23T04:48:02;7.22;;;3.72;;
18973;SDS011;9621;48.690;9.466;2023-03-23T04:50:31;8.35;;;3.78;;
18973;SDS011;9621;48.690;9.466;2023-03-23T04:52:59;8.98;;;4.32;;
18973;SDS011;9621;48.690;9.466;2023-03-23T04:55:29;6.50;;;3.78;;
18973;SDS011;9621;48.690;9.466;2023-03-23T04:57:56;6.18;;;3.75;;
18973;SDS011;9621;48.690;9.466;2023-03-23T05:00:25;5.78;;;3.90;;
18973;SDS011;9621;48.690;9.466;2023-03-23T05:02:53;5.38;;;3.65;;
18973;SDS011;9621;48.690;9.466;2023-03-23T05:05:21;6.25;;;3.88;;
18973;SDS011;9621;48.690;9.466;2023-03-23T05:07:49;7.70;;;3.88;;
18973;SDS011;9621;48.690;9.466;2023-03-23T05:10:17;6.20;;;3.63;;
18973;SDS011;9621;48.690;9.466;2023-03-23T05:12:44;5.97;;;3.88;;
18973;SDS011;9621;48.690;9.466;2023-03-23T05:15:11;6.95;;;3.05;;
18973;SDS011;9621;48.690;9.466;2023-03-23T05:17:39;6.13;;;3.28;;
18973;SDS011;9621;48.690;9.466;2023-03-23T05:20:11;6.07;;;3.30;;
18973;SDS011;9621;48.690;9.466;2023-03-23T05:22:39;6.68;;;3.80;;
18973;SDS011;9621;48.690;9.466;2023-03-23T05:25:07;7.00;;;3.45;;
18973;SDS011;9621;48.690;9.466;2023-03-23T05:27:35;5.53;;;3.88;;
18973;SDS011;9621;48.690;9.466;2023-03-23T05:30:02;6.22;;;3.65;;
18973;SDS011;9621;48.690;9.466;2023-03-23T05:32:31;4.15;;;3.65;;
18973;SDS011;9621;48.690;9.466;2023-03-23T05:34:58;5.13;;;3.65;;
18973;SDS011;9621;48.690;9.466;2023-03-23T05:37:27;7.65;;;4.15;;
18973;SDS011;9621;48.690;9.466;2023-03-23T05:39:57;5.07;;;3.63;;
18973;SDS011;9621;48.690;9.466;2023-03-23T05:42:26;5.22;;;3.50;;
18973;SDS011;9621;48.690;9.466;2023-03-23T05:44:53;4.72;;;3.25;;
18973;SDS011;9621;48.690;9.466;2023-03-23T05:47:20;4.80;;;3.45;;
18973;SDS011;9621;48.690;9.466;2023-03-23T05:49:47;5.03;;;3.45;;
18973;SDS011;9621;48.690;9.466;2023-03-23T05:52:14;5.75;;;3.45;;
18973;SDS011;9621;48.690;9.466;2023-03-23T05:54:42;5.88;;;3.63;;
18973;SDS011;9621;48.690;9.466;2023-03-23T05:57:09;4.22;;;3.42;;
18973;SDS011;9621;48.690;9.466;2023-03-23T05:59:36;7.22;;;3.53;;
18973;SDS011;9621;48.690;9.466;2023-03-23T06:02:03;7.68;;;4.22;;
18973;SDS011;9621;48.690;9.466;2023-03-23T06:04:30;6.80;;;4.57;;
18973;SDS011;9621;48.690;9.466;2023-03-23T06:06:58;6.78;;;3.97;;
18973;SDS011;9621;48.690;9.466;2023-03-23T06:09:25;5.38;;;4.07;;
18973;SDS011;9621;48.690;9.466;2023-03-23T06:11:54;5.95;;;4.15;;
18973;SDS011;9621;48.690;9.466;2023-03-23T06:14:21;6.53;;;4.57;;
18973;SDS011;9621;48.690;9.466;2023-03-23T06:16:48;15.98;;;4.18;;
18973;SDS011;9621;48.690;9.466;2023-03-23T06:19:15;5.45;;;3.40;;
18973;SDS011;9621;48.690;9.466;2023-03-23T06:21:43;5.90;;;3.50;;
18973;SDS011;9621;48.690;9.466;2023-03-23T06:24:10;5.10;;;3.30;;
18973;SDS011;9621;48.690;9.466;2023-03-23T06:26:37;6.20;;;3.70;;
18973;SDS011;9621;48.690;9.466;2023-03-23T06:29:07;4.95;;;3.83;;
18973;SDS011;9621;48.690;9.466;2023-03-23T06:31:37;9.32;;;3.83;;
18973;SDS011;9621;48.690;9.466;2023-03-23T06:34:05;6.18;;;3.42;;
18973;SDS011;9621;48.690;9.466;2023-03-23T06:36:32;5.07;;;4.28;;
18973;SDS011;9621;48.690;9.466;2023-03-23T06:38:59;5.60;;;4.35;;
18973;SDS011;9621;48.690;9.466;2023-03-23T06:41:29;8.25;;;3.92;;
18973;SDS011;9621;48.690;9.466;2023-03-23T06:43:56;5.80;;;4.00;;
18973;SDS011;9621;48.690;9.466;2023-03-23T06:46:25;5.38;;;3.47;;
18973;SDS011;9621;48.690;9.466;2023-03-23T06:48:52;7.57;;;3.78;;
18973;SDS011;9621;48.690;9.466;2023-03-23T06:51:19;6.20;;;3.53;;
18973;SDS011;9621;48.690;9.466;2023-03-23T06:53:46;8.13;;;3.67;;
18973;SDS011;9621;48.690;9.466;2023-03-23T06:56:13;4.75;;;3.05;;
18973;SDS011;9621;48.690;9.466;2023-03-23T06:58:40;7.18;;;3.28;;
18973;SDS011;9621;48.690;9.466;2023-03-23T07:01:08;5.72;;;3.60;;
18973;SDS011;9621;48.690;9.466;2023-03-23T07:03:36;5.03;;;3.30;;
18973;SDS011;9621;48.690;9.466;2023-03-23T07:06:04;5.50;;;3.15;;
18973;SDS011;9621;48.690;9.466;2023-03-23T07:08:32;6.28;;;3.45;;
18973;SDS011;9621;48.690;9.466;2023-03-23T07:10:59;4.88;;;3.50;;
18973;SDS011;9621;48.690;9.466;2023-03-23T07:13:25;6.07;;;3.47;;
18973;SDS011;9621;48.690;9.466;2023-03-23T07:15:53;5.28;;;3.38;;
18973;SDS011;9621;48.690;9.466;2023-03-23T07:18:20;8.00;;;3.88;;
18973;SDS011;9621;48.690;9.466;2023-03-23T07:20:49;6.05;;;3.47;;
18973;SDS011;9621;48.690;9.466;2023-03-23T07:23:16;4.28;;;3.22;;
18973;SDS011;9621;48.690;9.466;2023-03-23T07:25:44;5.97;;;3.67;;
18973;SDS011;9621;48.690;9.466;2023-03-23T07:28:13;8.80;;;3.88;;
18973;SDS011;9621;48.690;9.466;2023-03-23T07:30:41;7.13;;;4.20;;
18973;SDS011;9621;48.690;9.466;2023-03-23T07:33:08;9.00;;;4.25;;
18973;SDS011;9621;48.690;9.466;2023-03-23T07:35:36;8.25;;;3.95;;
18973;SDS011;9621;48.690;9.466;2023-03-23T07:38:05;7.97;;;4.07;;
18973;SDS011;9621;48.690;9.466;2023-03-23T07:40:33;5.43;;;3.72;;
18973;SDS011;9621;48.690;9.466;2023-03-23T07:43:01;4.18;;;3.20;;
18973;SDS011;9621;48.690;9.466;2023-03-23T07:45:30;5.88;;;3.25;;
18973;SDS011;9621;48.690;9.466;2023-03-23T07:47:58;5.45;;;3.35;;
18973;SDS011;9621;48.690;9.466;2023-03-23T07:50:25;5.82;;;3.70;;
18973;SDS011;9621;48.690;9.466;2023-03-23T07:52:54;6.25;;;3.70;;
18973;SDS011;9621;48.690;9.466;2023-03-23T07:55:22;5.82;;;3.95;;
18973;SDS011;9621;48.690;9.466;2023-03-23T07:57:50;5.75;;;3.53;;
18973;SDS011;9621;48.690;9.466;2023-03-23T08:00:19;5.80;;;4.00;;
18973;SDS011;9621;48.690;9.466;2023-03-23T08:02:49;7.80;;;3.95;;
18973;SDS011;9621;48.690;9.466;2023-03-23T08:05:17;6.25;;;3.88;;
18973;SDS011;9621;48.690;9.466;2023-03-23T08:07:45;6.15;;;3.88;;
18973;SDS011;9621;48.690;9.466;2023-03-23T08:10:13;6.03;;;4.13;;
18973;SDS011;9621;48.690;9.466;2023-03-23T08:12:44;10.43;;;4.35;;
18973;SDS011;9621;48.690;9.466;2023-03-23T08:15:12;9.55;;;5.15;;
18973;SDS011;9621;48.690;9.466;2023-03-23T08:17:39;9.48;;;5.07;;
18973;SDS011;9621;48.690;9.466;2023-03-23T08:20:08;13.73;;;6.20;;
18973;SDS011;9621;48.690;9.466;2023-03-23T08:22:38;11.27;;;5.90;;
18973;SDS011;9621;48.690;9.466;2023-03-23T08:25:07;9.35;;;5.93;;
18973;SDS011;9621;48.690;9.466;2023-03-23T08:27:37;8.93;;;5.45;;
18973;SDS011;9621;48.690;9.466;2023-03-23T08:30:10;6.68;;;4.88;;
18973;SDS011;9621;48.690;9.466;2023-03-23T08:32:39;10.05;;;5.00;;
18973;SDS011;9621;48.690;9.466;2023-03-23T08:35:06;10.68;;;4.55;;
18973;SDS011;9621;48.690;9.466;2023-03-23T08:37:34;11.00;;;4.78;;
18973;SDS011;9621;48.690;9.466;2023-03-23T08:40:01;7.47;;;4.32;;
18973;SDS011;9621;48.690;9.466;2023-03-23T08:42:33;6.60;;;4.35;;
18973;SDS011;9621;48.690;9.466;2023-03-23T08:45:01;7.80;;;4.20;;
18973;SDS011;9621;48.690;9.466;2023-03-23T08:47:29;7.07;;;4.30;;
18973;SDS011;9621;48.690;9.466;2023-03-23T08:49:56;6.90;;;3.90;;
18973;SDS011;9621;48.690;9.466;2023-03-23T08:52:25;5.38;;;2.50;;
18973;SDS011;9621;48.690;9.466;2023-03-23T08:54:52;5.78;;;2.20;;
18973;SDS011;9621;48.690;9.466;2023-03-23T08:57:20;5.55;;;1.98;;
18973;SDS011;9621;48.690;9.466;2023-03-23T08:59:47;3.38;;;2.22;;
18973;SDS011;9621;48.690;9.466;2023-03-23T09:02:14;4.65;;;2.30;;
18973;SDS011;9621;48.690;9.466;2023-03-23T09:04:43;4.72;;;1.92;;
18973;SDS011;9621;48.690;9.466;2023-03-23T09:07:11;3.55;;;1.30;;
18973;SDS011;9621;48.690;9.466;2023-03-23T09:09:39;2.58;;;1.75;;
18973;SDS011;9621;48.690;9.466;2023-03-23T09:12:08;6.70;;;1.83;;
18973;SDS011;9621;48.690;9.466;2023-03-23T09:14:35;2.10;;;1.42;;
18973;SDS011;9621;48.690;9.466;2023-03-23T09:17:03;1.73;;;1.35;;
18973;SDS011;9621;48.690;9.466;2023-03-23T09:19:30;4.18;;;1.48;;
18973;SDS011;9621;48.690;9.466;2023-03-23T09:22:01;2.30;;;1.67;;
18973;SDS011;9621;48.690;9.466;2023-03-23T09:24:29;2.08;;;1.40;;
18973;SDS011;9621;48.690;9.466;2023-03-23T09:26:56;4.40;;;1.70;;
18973;SDS011;9621;48.690;9.466;2023-03-23T09:29:24;2.45;;;1.50;;
18973;SDS011;9621;48.690;9.466;2023-03-23T09:31:51;3.60;;;1.48;;
18973;SDS011;9621;48.690;9.466;2023-03-23T09:34:18;1.25;;;1.10;;
18973;SDS011;9621;48.690;9.466;2023-03-23T09:36:45;2.70;;;1.50;;
18973;SDS011;9621;48.690;9.466;2023-03-23T09:39:16;4.15;;;1.40;;
18973;SDS011;9621;48.690;9.466;2023-03-23T09:41:47;3.10;;;1.40;;
18973;SDS011;9621;48.690;9.466;2023-03-23T09:44:34;1.65;;;1.38;;
18973;SDS011;9621;48.690;9.466;2023-03-23T09:47:14;1.92;;;1.40;;
18973;SDS011;9621;48.690;9.466;2023-03-23T09:49:45;1.17;;;1.02;;
18973;SDS011;9621;48.690;9.466;2023-03-23T09:52:17;2.80;;;1.30;;
18973;SDS011;9621;48.690;9.466;2023-03-23T09:54:46;3.47;;;1.55;;
18973;SDS011;9621;48.690;9.466;2023-03-23T09:57:16;2.90;;;1.60;;
18973;SDS011;9621;48.690;9.466;2023-03-23T10:00:02;2.42;;;1.50;;
18973;SDS011;9621;48.690;9.466;2023-03-23T10:02:36;2.80;;;1.50;;
18973;SDS011;9621;48.690;9.466;2023-03-23T10:05:27;2.80;;;1.63;;
18973;SDS011;9621;48.690;9.466;2023-03-23T10:08:00;1.63;;;1.30;;
18973;SDS011;9621;48.690;9.466;2023-03-23T10:10:34;2.30;;;1.38;;
18973;SDS011;9621;48.690;9.466;2023-03-23T10:13:13;4.47;;;1.40;;
18973;SDS011;9621;48.690;9.466;2023-03-23T10:15:48;1.92;;;1.40;;
18973;SDS011;9621;48.690;9.466;2023-03-23T10:18:17;1.67;;;1.17;;
18973;SDS011;9621;48.690;9.466;2023-03-23T10:20:48;1.92;;;1.45;;
18973;SDS011;9621;48.690;9.466;2023-03-23T10:23:37;1.50;;;1.23;;
18973;SDS011;9621;48.690;9.466;2023-03-23T10:26:14;1.65;;;1.25;;
18973;SDS011;9621;48.690;9.466;2023-03-23T10:28:52;2.05;;;1.50;;
18973;SDS011;9621;48.690;9.466;2023-03-23T10:31:23;3.80;;;1.20;;
18973;SDS011;9621;48.690;9.466;2023-03-23T10:33:54;1.92;;;1.23;;
18973;SDS011;9621;48.690;9.466;2023-03-23T10:36:24;2.47;;;1.20;;
18973;SDS011;9621;48.690;9.466;2023-03-23T10:38:57;2.70;;;1.33;;
18973;SDS011;9621;48.690;9.466;2023-03-23T10:41:29;2.25;;;1.48;;
18973;SDS011;9621;48.690;9.466;2023-03-23T10:43:56;2.47;;;1.10;;
18973;SDS011;9621;48.690;9.466;2023-03-23T10:46:26;1.83;;;1.23;;
18973;SDS011;9621;48.690;9.466;2023-03-23T10:49:01;3.10;;;1.45;;
18973;SDS011;9621;48.690;9.466;2023-03-23T10:51:32;3.08;;;1.20;;
18973;SDS011;9621;48.690;9.466;2023-03-23T10:54:02;2.28;;;1.10;;
18973;SDS011;9621;48.690;9.466;2023-03-23T10:56:36;1.88;;;1.20;;
18973;SDS011;9621;48.690;9.466;2023-03-23T10:59:14;1.92;;;1.10;;
18973;SDS011;9621;48.690;9.466;2023-03-23T11:01:48;1.70;;;1.13;;
18973;SDS011;9621;48.690;9.466;2023-03-23T11:04:17;2.35;;;1.33;;
18973;SDS011;9621;48.690;9.466;2023-03-23T11:06:45;3.65;;;1.20;;
18973;SDS011;9621;48.690;9.466;2023-03-23T11:09:16;1.80;;;1.30;;
18973;SDS011;9621;48.690;9.466;2023-03-23T11:11:50;1.92;;;1.20;;
18973;SDS011;9621;48.690;9.466;2023-03-23T11:14:23;1.20;;;1.10;;
18973;SDS011;9621;48.690;9.466;2023-03-23T11:16:52;2.78;;;1.27;;
18973;SDS011;9621;48.690;9.466;2023-03-23T11:19:22;2.35;;;1.30;;
18973;SDS011;9621;48.690;9.466;2023-03-23T11:21:50;3.15;;;1.70;;
18973;SDS011;9621;48.690;9.466;2023-03-23T11:24:21;2.97;;;1.45;;
18973;SDS011;9621;48.690;9.466;2023-03-23T11:26:50;2.42;;;1.50;;
18973;SDS011;9621;48.690;9.466;2023-03-23T11:29:19;2.95;;;1.77;;
18973;SDS011;9621;48.690;9.466;2023-03-23T11:31:50;6.13;;;3.10;;
18973;SDS011;9621;48.690;9.466;2023-03-23T11:34:20;2.70;;;1.90;;
18973;SDS011;9621;48.690;9.466;2023-03-23T11:36:49;3.03;;;1.73;;
18973;SDS011;9621;48.690;9.466;2023-03-23T11:39:20;3.42;;;1.70;;
18973;SDS011;9621;48.690;9.466;2023-03-23T11:41:50;4.38;;;1.50;;
18973;SDS011;9621;48.690;9.466;2023-03-23T11:44:17;2.42;;;1.25;;
18973;SDS011;9621;48.690;9.466;2023-03-23T11:46:47;2.67;;;1.55;;
18973;SDS011;9621;48.690;9.466;2023-03-23T11:49:30;4.38;;;1.70;;
18973;SDS011;9621;48.690;9.466;2023-03-23T11:52:09;3.58;;;1.80;;
18973;SDS011;9621;48.690;9.466;2023-03-23T11:54:43;2.00;;;1.55;;
18973;SDS011;9621;48.690;9.466;2023-03-23T11:57:16;1.83;;;1.33;;
18973;SDS011;9621;48.690;9.466;2023-03-23T11:59:43;2.08;;;1.40;;
18973;SDS011;9621;48.690;9.466;2023-03-23T12:05:27;1.83;;;1.17;;
18973;SDS011;9621;48.690;9.466;2023-03-23T12:08:02;2.13;;;1.52;;
18973;SDS011;9621;48.690;9.466;2023-03-23T12:10:59;1.95;;;1.23;;
18973;SDS011;9621;48.690;9.466;2023-03-23T12:13:45;1.80;;;1.20;;
18973;SDS011;9621;48.690;9.466;2023-03-23T12:16:23;2.83;;;1.38;;
18973;SDS011;9621;48.690;9.466;2023-03-23T12:18:57;1.60;;;1.10;;
18973;SDS011;9621;48.690;9.466;2023-03-23T12:21:35;1.52;;;1.08;;
18973;SDS011;9621;48.690;9.466;2023-03-23T12:24:17;2.17;;;1.40;;
18973;SDS011;9621;48.690;9.466;2023-03-23T12:26:56;1.95;;;1.15;;
18973;SDS011;9621;48.690;9.466;2023-03-23T12:32:30;4.40;;;1.40;;
18973;SDS011;9621;48.690;9.466;2023-03-23T12:35:24;6.43;;;1.30;;
18973;SDS011;9621;48.690;9.466;2023-03-23T12:38:19;2.03;;;1.27;;
18973;SDS011;9621;48.690;9.466;2023-03-23T12:41:07;3.22;;;1.33;;
18973;SDS011;9621;48.690;9.466;2023-03-23T12:43:46;1.83;;;1.10;;
18973;SDS011;9621;48.690;9.466;2023-03-23T12:46:25;2.33;;;1.23;;
18973;SDS011;9621;48.690;9.466;2023-03-23T12:49:10;3.88;;;1.50;;
18973;SDS011;9621;48.690;9.466;2023-03-23T12:51:42;2.35;;;1.33;;
18973;SDS011;9621;48.690;9.466;2023-03-23T12:54:19;1.70;;;1.10;;
18973;SDS011;9621;48.690;9.466;2023-03-23T12:56:52;2.40;;;1.27;;
18973;SDS011;9621;48.690;9.466;2023-03-23T12:59:25;2.72;;;1.33;;
18973;SDS011;9621;48.690;9.466;2023-03-23T13:01:58;2.38;;;1.48;;
18973;SDS011;9621;48.690;9.466;2023-03-23T13:04:30;2.97;;;1.45;;
18973;SDS011;9621;48.690;9.466;2023-03-23T13:07:01;2.15;;;1.10;;
18973;SDS011;9621;48.690;9.466;2023-03-23T13:09:31;2.58;;;1.50;;
18973;SDS011;9621;48.690;9.466;2023-03-23T13:12:03;2.63;;;1.13;;
18973;SDS011;9621;48.690;9.466;2023-03-23T13:14:34;1.92;;;1.33;;
18973;SDS011;9621;48.690;9.466;2023-03-23T13:17:12;2.75;;;1.33;;
18973;SDS011;9621;48.690;9.466;2023-03-23T13:19:56;2.90;;;1.45;;
18973;SDS011;9621;48.690;9.466;2023-03-23T13:22:35;2.67;;;1.40;;
18973;SDS011;9621;48.690;9.466;2023-03-23T13:25:06;3.63;;;1.30;;
18973;SDS011;9621;48.690;9.466;2023-03-23T13:27:38;1.88;;;1.30;;
18973;SDS011;9621;48.690;9.466;2023-03-23T13:30:05;1.98;;;1.20;;
18973;SDS011;9621;48.690;9.466;2023-03-23T13:32:49;2.15;;;1.10;;
18973;SDS011;9621;48.690;9.466;2023-03-23T13:35:17;2.00;;;1.40;;
18973;SDS011;9621;48.690;9.466;2023-03-23T13:37:47;3.83;;;1.30;;
18973;SDS011;9621;48.690;9.466;2023-03-23T13:40:18;4.70;;;1.40;;
18973;SDS011;9621;48.690;9.466;2023-03-23T13:42:53;1.50;;;1.23;;
18973;SDS011;9621;48.690;9.466;2023-03-23T13:45:22;2.28;;;1.50;;
18973;SDS011;9621;48.690;9.466;2023-03-23T13:48:03;2.92;;;1.30;;
18973;SDS011;9621;48.690;9.466;2023-03-23T13:50:42;1.60;;;1.30;;
18973;SDS011;9621;48.690;9.466;2023-03-23T13:53:14;3.45;;;1.52;;
18973;SDS011;9621;48.690;9.466;2023-03-23T13:55:49;2.92;;;1.17;;
18973;SDS011;9621;48.690;9.466;2023-03-23T13:58:24;2.05;;;1.38;;
18973;SDS011;9621;48.690;9.466;2023-03-23T14:01:01;2.40;;;1.38;;
18973;SDS011;9621;48.690;9.466;2023-03-23T14:03:38;3.35;;;1.48;;
18973;SDS011;9621;48.690;9.466;2023-03-23T14:06:10;1.08;;;0.90;;
18973;SDS011;9621;48.690;9.466;2023-03-23T14:08:41;2.65;;;1.23;;
18973;SDS011;9621;48.690;9.466;2023-03-23T14:11:14;2.55;;;1.65;;
18973;SDS011;9621;48.690;9.466;2023-03-23T14:13:49;2.10;;;1.10;;
18973;SDS011;9621;48.690;9.466;2023-03-23T14:16:24;3.97;;;1.40;;
18973;SDS011;9621;48.690;9.466;2023-03-23T14:18:59;3.45;;;1.30;;
18973;SDS011;9621;48.690;9.466;2023-03-23T14:21:32;2.80;;;1.30;;
18973;SDS011;9621;48.690;9.466;2023-03-23T14:24:01;1.45;;;1.30;;
18973;SDS011;9621;48.690;9.466;2023-03-23T14:26:32;2.00;;;1.50;;
18973;SDS011;9621;48.690;9.466;2023-03-23T14:29:00;5.53;;;1.40;;
18973;SDS011;9621;48.690;9.466;2023-03-23T14:31:28;3.17;;;1.30;;
18973;SDS011;9621;48.690;9.466;2023-03-23T14:33:56;3.75;;;1.50;;
18973;SDS011;9621;48.690;9.466;2023-03-23T14:36:29;3.03;;;1.63;;
18973;SDS011;9621;48.690;9.466;2023-03-23T14:38:59;1.80;;;1.40;;
18973;SDS011;9621;48.690;9.466;2023-03-23T14:41:28;3.63;;;1.70;;
18973;SDS011;9621;48.690;9.466;2023-03-23T14:43:56;2.88;;;1.60;;
18973;SDS011;9621;48.690;9.466;2023-03-23T14:46:26;2.85;;;1.50;;
18973;SDS011;9621;48.690;9.466;2023-03-23T14:48:54;2.88;;;1.83;;
18973;SDS011;9621;48.690;9.466;2023-03-23T14:51:21;2.50;;;1.60;;
18973;SDS011;9621;48.690;9.466;2023-03-23T14:53:49;1.98;;;1.58;;
18973;SDS011;9621;48.690;9.466;2023-03-23T14:56:20;8.25;;;5.80;;
18973;SDS011;9621;48.690;9.466;2023-03-23T14:58:53;3.30;;;2.60;;
18973;SDS011;9621;48.690;9.466;2023-03-23T15:01:23;3.90;;;2.00;;
18973;SDS011;9621;48.690;9.466;2023-03-23T15:03:52;2.85;;;1.75;;
18973;SDS011;9621;48.690;9.466;2023-03-23T15:06:25;2.92;;;1.52;;
18973;SDS011;9621;48.690;9.466;2023-03-23T15:08:56;3.78;;;2.22;;
18973;SDS011;9621;48.690;9.466;2023-03-23T15:11:27;4.97;;;1.52;;
18973;SDS011;9621;48.690;9.466;2023-03-23T15:13:58;2.63;;;1.63;;
18973;SDS011;9621;48.690;9.466;2023-03-23T15:16:34;5.13;;;1.80;;
18973;SDS011;9621;48.690;9.466;2023-03-23T15:19:04;2.88;;;1.90;;
18973;SDS011;9621;48.690;9.466;2023-03-23T15:21:46;4.03;;;1.80;;
18973;SDS011;9621;48.690;9.466;2023-03-23T15:24:33;6.80;;;2.50;;
18973;SDS011;9621;48.690;9.466;2023-03-23T15:27:03;3.67;;;2.40;;
18973;SDS011;9621;48.690;9.466;2023-03-23T15:29:45;2.78;;;2.20;;